Time;durP1;ratioP1;P1;durP2;ratioP2;P2;SDS_P1;SDS_P2;PMS_P1;PMS_P2;Temp;Humidity;BMP_temperature;BMP_pressure;BME280_temperature;BME280_humidity;BME280_pressure;Samples;Min_cycle;Max_cycle;Signal;HPM_P1;HPM_P2
2022/11/19 07:36:42;;;;;;;12.13;10.30;;;;;;;;;;10618346;28;20140;-85
2022/11/19 07:47:03;;;;;;;9.10;8.10;;;;;;;;;;10618642;28;20106;-84
2022/11/19 07:52:04;;;;;;;13.18;10.00;;;;;;;;;;10601937;28;20019;-84
2022/11/19 07:57:05;;;;;;;9.80;7.70;;;;;;;;;;10604289;28;20030;-84
2022/11/19 08:02:06;;;;;;;11.52;9.73;;;;;;;;;;10604036;28;20114;-85
2022/11/19 08:07:07;;;;;;;7.32;6.20;;;;;;;;;;10583480;28;20042;-85
2022/11/19 08:12:08;;;;;;;15.05;7.15;;;;;;;;;;10586966;28;20093;-84
2022/11/19 08:22:29;;;;;;;10.40;8.18;;;;;;;;;;10605712;28;20032;-83
2022/11/19 08:27:43;;;;;;;11.10;8.55;;;;;;;;;;10585476;28;20042;-84
2022/11/19 08:55:33;;;;;;;8.98;7.32;;;;;;;;;;10600122;28;20359;-85
2022/11/19 09:00:53;;;;;;;7.95;7.15;;;;;;;;;;10578448;28;20027;-87
2022/11/19 10:48:07;;;;;;;6.97;5.88;;;;;;;;;;10300402;28;20046;-85
2022/11/19 11:10:57;;;;;;;10.80;6.78;;;;;;;;;;10506945;28;20431;-84
2022/11/19 12:30:26;;;;;;;6.28;5.40;;;;;;;;;;10449720;28;20028;-84
2022/11/19 12:42:02;;;;;;;6.35;5.47;;;;;;;;;;10419044;28;20026;-85
2022/11/19 12:47:17;;;;;;;3.60;3.03;;;;;;;;;;10391972;28;20040;-83
2022/11/19 12:52:41;;;;;;;;;;;;;;;;;;;;;
2022/11/19 12:57:51;;;;;;;6.60;4.68;;;;;;;;;;10507426;28;20026;-85
2022/11/19 13:03:14;;;;;;;7.40;6.70;;;;;;;;;;10488426;28;20491;-86
2022/11/19 13:08:30;;;;;;;6.00;4.90;;;;;;;;;;10507780;28;20031;-87
2022/11/19 13:13:33;;;;;;;6.65;4.75;;;;;;;;;;10488447;28;20502;-85
2022/11/19 13:18:38;;;;;;;7.97;6.60;;;;;;;;;;10486602;28;20048;-86
2022/11/19 13:23:46;;;;;;;7.50;6.00;;;;;;;;;;10485858;28;20040;-87
2022/11/19 13:28:53;;;;;;;5.88;4.75;;;;;;;;;;10505162;28;20111;-87
2022/11/19 13:33:59;;;;;;;6.82;5.05;;;;;;;;;;10487949;28;20037;-84
2022/11/19 13:39:10;;;;;;;7.10;5.75;;;;;;;;;;10489080;28;20044;-85
2022/11/19 13:49:36;;;;;;;8.38;6.22;;;;;;;;;;10505091;28;20400;-85
2022/11/19 13:54:39;;;;;;;6.70;4.32;;;;;;;;;;10485582;28;20036;-86
2022/11/19 13:59:42;;;;;;;7.15;4.80;;;;;;;;;;10524581;28;20070;-86
2022/11/19 14:04:43;;;;;;;8.38;6.32;;;;;;;;;;10484410;28;20039;-86
2022/11/19 14:10:03;;;;;;;6.75;6.07;;;;;;;;;;10490977;28;20067;-86
2022/11/19 14:31:20;;;;;;;6.78;4.93;;;;;;;;;;10540201;28;20045;-87
2022/11/19 14:36:45;;;;;;;4.05;3.38;;;;;;;;;;10527294;28;20021;-85
2022/11/19 14:41:46;;;;;;;9.30;4.97;;;;;;;;;;10518088;28;20020;-85
2022/11/19 14:46:47;;;;;;;;;;;;;;;;;;10529913;28;20037;-86
2022/11/19 14:51:52;;;;;;;4.80;3.92;;;;;;;;;;10493326;28;19904;-85
2022/11/19 14:57:03;;;;;;;5.00;4.43;;;;;;;;;;10490467;28;20507;-85
2022/11/19 15:02:13;;;;;;;4.65;4.05;;;;;;;;;;10489757;28;20044;-84
2022/11/19 15:07:16;;;;;;;3.75;3.20;;;;;;;;;;10499361;28;20066;-85
2022/11/19 15:12:18;;;;;;;5.65;3.67;;;;;;;;;;10476124;28;20032;-86
2022/11/19 15:43:36;;;;;;;4.90;3.58;;;;;;;;;;11296108;23;20068;-85
2022/11/19 15:49:02;;;;;;;5.80;4.97;;;;;;;;;;10456758;28;20397;-84
2022/11/19 15:54:09;;;;;;;;;;;;;;;;;;10470450;28;20067;-83
2022/11/19 15:59:12;;;;;;;4.25;3.85;;;;;;;;;;10450987;28;19909;-83
2022/11/19 16:04:15;;;;;;;4.85;3.50;;;;;;;;;;10467703;28;20033;-84
2022/11/19 16:09:23;;;;;;;3.80;2.88;;;;;;;;;;10453151;28;20033;-85
2022/11/19 16:20:09;;;;;;;5.43;3.92;;;;;;;;;;10502027;23;20364;-86
2022/11/19 16:25:24;;;;;;;5.07;4.20;;;;;;;;;;10842347;23;20080;-84
2022/11/19 16:30:27;;;;;;;4.93;3.85;;;;;;;;;;10496513;28;20051;-84
2022/11/19 16:35:30;;;;;;;4.45;4.05;;;;;;;;;;10516715;28;20111;-84
2022/11/19 16:42:15;;;;;;;5.65;4.78;;;;;;;;;;10497527;28;20502;-84
2022/11/19 16:45:54;;;;;;;;;;;;;;;;;;10513256;28;20052;-84
2022/11/19 16:51:25;;;;;;;4.07;3.47;;;;;;;;;;10494270;28;20257;-84
2022/11/19 16:56:32;;;;;;;4.60;3.72;;;;;;;;;;10516049;28;20108;-85
2022/11/19 17:01:33;;;;;;;7.82;6.07;;;;;;;;;;10535237;28;20055;-86
2022/11/19 17:06:36;;;;;;;3.88;3.40;;;;;;;;;;10513305;28;20052;-85
2022/11/19 17:16:57;;;;;;;6.47;4.50;;;;;;;;;;10524276;28;20092;-85
2022/11/19 17:21:58;;;;;;;;;;;;;;;;;;10506751;28;20043;-85
2022/11/19 17:26:59;;;;;;;4.65;4.05;;;;;;;;;;10501765;28;19919;-85
2022/11/19 17:32:03;;;;;;;7.22;6.47;;;;;;;;;;10500264;28;20024;-86
2022/11/19 17:37:07;;;;;;;9.00;7.38;;;;;;;;;;10498468;28;20130;-86
2022/11/19 17:47:28;;;;;;;5.60;4.32;;;;;;;;;;10511842;28;20033;-85
2022/11/19 17:52:29;;;;;;;;;;;;;;;;;;10477917;28;20043;-85
2022/11/19 17:57:31;;;;;;;5.35;4.22;;;;;;;;;;10491408;28;20366;-85
2022/11/19 18:02:32;;;;;;;5.55;4.45;;;;;;;;;;10485825;28;20113;-85
2022/11/19 18:07:33;;;;;;;;;;;;;;;;;;10485261;28;20028;-85
2022/11/19 18:12:34;;;;;;;6.43;5.55;;;;;;;;;;10486824;28;20352;-85
2022/11/19 18:17:35;;;;;;;;;;;;;;;;;;10492620;28;20040;-85
2022/11/19 18:27:37;;;;;;;;;;;;;;;;;;10459172;23;20037;-80
2022/11/19 18:32:38;;;;;;;6.60;5.55;;;;;;;;;;10413454;28;19905;-79
2022/11/19 18:37:39;;;;;;;;;;;;;;;;;;10415310;28;20033;-80
2022/11/19 18:48:00;;;;;;;8.43;6.63;;;;;;;;;;10424611;28;20113;-80
2022/11/19 18:53:01;;;;;;;;;;;;;;;;;;10405382;28;20037;-79
2022/11/19 18:58:02;;;;;;;7.32;5.80;;;;;;;;;;10406427;28;19915;-80
2022/11/19 19:03:04;;;;;;;;;;;;;;;;;;10408519;28;20060;-79
2022/11/19 19:08:05;;;;;;;6.00;4.60;;;;;;;;;;10404925;28;19912;-80
2022/11/19 19:13:10;;;;;;;5.18;4.38;;;;;;;;;;10404511;28;20037;-80
2022/11/19 19:18:11;;;;;;;5.43;4.35;;;;;;;;;;10388010;28;20214;-80
2022/11/19 19:23:12;;;;;;;;;;;;;;;;;;10406186;28;20416;-81
2022/11/19 19:28:17;;;;;;;5.75;4.72;;;;;;;;;;10409484;28;19905;-80
2022/11/19 19:33:18;;;;;;;5.00;4.25;;;;;;;;;;10423138;28;20040;-79
2022/11/19 19:38:19;;;;;;;5.13;4.63;;;;;;;;;;10402827;28;20409;-80
2022/11/19 19:43:20;;;;;;;;;;;;;;;;;;10402542;28;20038;-80
2022/11/19 19:48:21;;;;;;;5.78;5.13;;;;;;;;;;10420385;28;19905;-81
2022/11/19 19:53:22;;;;;;;6.43;5.07;;;;;;;;;;10403363;28;20105;-81
2022/11/19 19:58:23;;;;;;;;;;;;;;;;;;10406634;28;20195;-81
2022/11/19 20:03:27;;;;;;;5.80;4.90;;;;;;;;;;10408174;28;19911;-80
2022/11/19 20:08:28;;;;;;;5.80;5.05;;;;;;;;;;10412722;28;20033;-81
2022/11/19 20:13:30;;;;;;;6.35;4.82;;;;;;;;;;10409459;28;20400;-81
2022/11/19 20:18:32;;;;;;;5.22;4.47;;;;;;;;;;10410054;28;20041;-81
